Time;durP1;ratioP1;P1;durP2;ratioP2;P2;SDS_P1;SDS_P2;PMS_P1;PMS_P2;Temp;Humidity;BMP_temperature;BMP_pressure;BME280_temperature;BME280_humidity;BME280_pressure;Samples;Min_cycle;Max_cycle;Signal;HPM_P1;HPM_P2
2021/01/24 00:02:26;;;;;;;24.77;19.87;;;1.80;99.90;;;2.40;99.75;95620.72;5231336;28;20331;-73
2021/01/24 00:04:58;;;;;;;22.50;18.67;;;1.70;99.90;;;2.36;99.97;95630.56;5227159;28;20200;-74
2021/01/24 00:07:30;;;;;;;22.70;18.57;;;1.70;99.90;;;2.36;99.61;95635.63;5226020;28;20199;-74
2021/01/24 00:10:04;;;;;;;22.10;17.60;;;1.80;99.90;;;2.24;99.14;95629.16;5227214;28;20217;-72
2021/01/24 00:12:36;;;;;;;21.50;17.50;;;1.70;99.90;;;2.28;99.23;95634.34;5226594;28;20604;-73
2021/01/24 00:15:10;;;;;;;21.77;17.03;;;1.70;99.90;;;2.31;100.00;95637.03;5226461;28;20255;-72
2021/01/24 00:17:42;;;;;;;20.67;17.10;;;1.70;99.90;;;2.35;100.00;95649.00;5224098;28;20613;-74
2021/01/24 00:20:14;;;;;;;21.97;16.50;;;1.70;99.90;;;2.38;99.68;95642.47;5226898;28;20598;-74
2021/01/24 00:22:46;;;;;;;22.40;17.53;;;1.70;99.90;;;2.43;99.72;95643.59;5223909;28;20220;-73
2021/01/24 00:25:18;;;;;;;23.07;17.30;;;1.80;99.90;;;2.42;99.78;95646.00;5225746;28;20568;-74
2021/01/24 00:27:50;;;;;;;20.40;17.07;;;1.80;99.90;;;2.39;99.46;95644.19;5225213;28;20207;-74
2021/01/24 00:30:23;;;;;;;19.07;15.50;;;1.80;99.90;;;2.38;100.00;95639.94;5229416;28;20223;-74
2021/01/24 00:32:55;;;;;;;15.90;13.00;;;1.80;99.90;;;2.40;100.00;95642.53;5236180;28;20315;-73
2021/01/24 00:35:27;;;;;;;15.07;12.53;;;1.80;99.90;;;2.42;100.00;95646.88;5230197;28;20203;-74
2021/01/24 00:38:00;;;;;;;14.93;12.33;;;1.90;99.90;;;2.44;100.00;95644.44;5228896;28;20622;-74
2021/01/24 00:40:32;;;;;;;12.03;10.87;;;1.90;99.90;;;2.48;100.00;95646.31;5229700;28;20618;-72
2021/01/24 00:43:04;;;;;;;11.87;10.67;;;1.90;99.90;;;2.58;100.00;95640.97;5230547;28;20238;-73
2021/01/24 00:45:37;;;;;;;11.43;10.33;;;1.90;99.90;;;2.59;100.00;95640.19;5229914;28;20201;-74
2021/01/24 00:48:10;;;;;;;11.53;10.07;;;2.00;99.90;;;2.63;100.00;95638.66;5230176;28;20213;-73
2021/01/24 00:50:42;;;;;;;9.80;8.90;;;2.00;99.90;;;2.73;100.00;95642.53;5229137;28;20230;-73
2021/01/24 00:53:14;;;;;;;9.83;8.93;;;2.00;99.90;;;2.81;100.00;95641.28;5229211;28;20709;-74
2021/01/24 00:55:46;;;;;;;11.13;10.00;;;2.10;99.90;;;2.78;99.93;95648.69;5228586;28;20284;-74
2021/01/24 00:58:18;;;;;;;9.73;8.77;;;2.10;99.90;;;2.74;100.00;95649.31;5230185;28;20198;-74
2021/01/24 01:00:51;;;;;;;7.90;7.17;;;2.10;99.90;;;2.70;100.00;95638.22;5231086;28;20191;-76
2021/01/24 01:03:24;;;;;;;7.53;6.93;;;2.10;99.90;;;2.70;100.00;95638.22;5227916;28;20227;-74
2021/01/24 01:05:56;;;;;;;7.23;6.57;;;2.10;99.90;;;2.69;99.29;95649.97;5231037;28;20208;-72
2021/01/24 01:08:28;;;;;;;8.80;8.00;;;2.10;99.90;;;2.80;99.70;95644.56;5230001;28;20197;-74
2021/01/24 01:11:00;;;;;;;10.40;9.40;;;2.10;99.90;;;2.79;100.00;95653.81;5227646;28;20216;-75
2021/01/24 01:13:32;;;;;;;11.27;10.17;;;2.10;99.90;;;2.75;99.78;95641.84;5231072;28;20258;-74
2021/01/24 01:16:07;;;;;;;9.30;8.40;;;2.10;99.90;;;2.67;99.62;95650.66;5229537;28;20626;-73
2021/01/24 01:18:39;;;;;;;8.00;7.20;;;2.10;99.90;;;2.71;100.00;95653.41;5230884;28;20207;-72
2021/01/24 01:21:11;;;;;;;7.23;6.63;;;2.10;99.90;;;2.74;100.00;95649.31;5231764;28;20205;-73
2021/01/24 01:23:43;;;;;;;7.20;6.60;;;2.10;99.90;;;2.68;99.36;95658.28;5231856;28;20313;-72
2021/01/24 01:26:16;;;;;;;6.40;5.90;;;2.10;99.90;;;2.77;99.93;95654.50;5228611;28;20218;-74
2021/01/24 01:28:48;;;;;;;7.20;6.67;;;2.10;99.90;;;2.78;99.76;95661.31;5228672;28;20438;-73
2021/01/24 01:31:21;;;;;;;6.70;6.20;;;2.10;99.90;;;2.79;99.68;95663.03;5232064;28;20225;-75
2021/01/24 01:33:53;;;;;;;6.30;5.87;;;2.20;99.90;;;2.89;99.86;95652.59;5230664;28;20981;-74
2021/01/24 01:36:25;;;;;;;7.00;6.50;;;2.20;99.90;;;2.88;100.00;95663.47;5233967;28;20296;-74
2021/01/24 01:38:57;;;;;;;7.50;6.90;;;2.20;99.90;;;2.88;100.00;95650.88;5231404;28;20261;-76
2021/01/24 01:41:30;;;;;;;8.23;7.47;;;2.20;99.90;;;2.93;99.83;95654.50;5228562;28;20208;-73
2021/01/24 01:44:03;;;;;;;7.73;7.13;;;2.20;99.90;;;2.92;99.74;95657.81;5233358;28;20308;-74
2021/01/24 01:46:38;;;;;;;7.13;6.53;;;2.30;99.90;;;2.93;99.89;95651.97;5229248;28;20664;-74
2021/01/24 01:49:10;;;;;;;7.47;6.87;;;2.30;99.90;;;2.95;100.00;95657.97;5228556;28;20201;-73
2021/01/24 01:51:43;;;;;;;7.77;7.17;;;2.30;99.90;;;3.01;99.87;95660.81;5226599;28;20221;-75
2021/01/24 01:54:16;;;;;;;6.97;6.47;;;2.30;99.90;;;3.08;99.82;95656.91;5220050;28;20217;-73
2021/01/24 01:56:49;;;;;;;6.23;5.80;;;2.30;99.90;;;3.09;99.29;95657.00;5235954;28;20393;-73
2021/01/24 01:59:21;;;;;;;6.43;6.03;;;2.30;99.90;;;3.28;98.61;95660.41;5233334;28;20201;-73
2021/01/24 02:02:19;;;;;;;5.07;4.67;;;2.40;99.90;;;3.14;97.91;95655.53;5228482;28;20204;-72
2021/01/24 02:04:59;;;;;;;4.40;4.10;;;2.40;99.90;;;3.08;97.63;95651.88;5229588;28;20201;-72
2021/01/24 02:07:42;;;;;;;4.43;4.13;;;2.40;99.90;;;3.11;98.11;95650.34;5229653;28;20205;-74
2021/01/24 02:10:21;;;;;;;5.53;5.23;;;2.40;99.90;;;3.09;97.93;95648.53;5228880;28;20232;-72
2021/01/24 02:13:03;;;;;;;5.83;5.43;;;2.40;99.90;;;3.07;98.76;95657.72;5228875;28;20244;-74
2021/01/24 02:15:38;;;;;;;4.70;4.40;;;2.40;99.90;;;3.09;98.62;95659.53;5229703;28;20199;-72
2021/01/24 02:18:12;;;;;;;4.97;4.67;;;2.40;99.90;;;3.11;98.14;95662.97;5230729;28;20291;-74
2021/01/24 02:20:49;;;;;;;5.47;5.07;;;2.40;99.90;;;3.09;97.71;95659.53;5229356;28;20209;-73
2021/01/24 02:23:25;;;;;;;4.90;4.60;;;2.40;99.90;;;3.04;97.35;95668.53;5227125;28;20245;-73
2021/01/24 02:26:06;;;;;;;5.57;5.17;;;2.40;99.90;;;3.01;97.46;95670.88;5232543;28;20203;-72
2021/01/24 02:28:56;;;;;;;5.63;5.23;;;2.40;99.90;;;3.05;98.17;95662.66;5228924;28;20201;-74
2021/01/24 02:31:32;;;;;;;5.43;5.03;;;2.40;99.90;;;3.11;98.31;95670.53;5228358;28;20284;-77
2021/01/24 02:34:06;;;;;;;5.00;4.67;;;2.40;99.90;;;3.28;97.64;95671.38;5229216;28;20703;-75
2021/01/24 02:36:39;;;;;;;4.73;4.33;;;2.40;99.90;;;3.16;97.71;95675.84;5227759;28;20196;-75
2021/01/24 02:39:12;;;;;;;5.00;4.70;;;2.40;99.90;;;3.27;96.42;95673.84;5227969;28;20661;-75
2021/01/24 02:41:45;;;;;;;3.80;3.60;;;2.40;99.90;;;3.26;96.36;95683.06;5224823;28;20574;-73
2021/01/24 02:44:18;;;;;;;3.73;3.53;;;2.40;99.90;;;3.34;96.11;95701.09;5226178;28;20228;-73
2021/01/24 02:46:51;;;;;;;3.90;3.70;;;2.50;99.90;;;3.42;95.73;95689.72;5224079;28;20192;-74
2021/01/24 02:49:23;;;;;;;4.30;4.00;;;2.50;99.90;;;3.38;95.47;95688.72;5225718;28;20621;-73
2021/01/24 02:51:57;;;;;;;4.07;3.77;;;2.50;99.90;;;3.47;94.39;95698.41;5224368;28;20766;-73
2021/01/24 02:54:31;;;;;;;3.77;3.53;;;2.60;99.90;;;3.42;93.34;95699.81;5225121;28;20280;-73
2021/01/24 02:57:04;;;;;;;3.70;3.40;;;2.50;99.90;;;3.23;92.82;95700.56;5225620;28;20724;-73
2021/01/24 02:59:37;;;;;;;3.10;3.00;;;2.50;99.90;;;3.20;94.04;95727.31;5225474;28;20214;-76
2021/01/24 03:02:11;;;;;;;2.57;2.47;;;2.40;99.90;;;3.23;93.61;95725.81;5224863;28;20222;-73
2021/01/24 03:04:43;;;;;;;3.20;3.00;;;2.50;99.90;;;3.11;92.60;95743.72;5224891;28;20209;-73
2021/01/24 03:07:15;;;;;;;2.23;2.13;;;2.50;99.90;;;3.01;92.55;95746.59;5224961;28;20665;-74
2021/01/24 03:09:48;;;;;;;2.77;2.67;;;2.50;99.90;;;3.12;93.53;95755.56;5225131;28;20203;-73
2021/01/24 03:12:20;;;;;;;2.57;2.47;;;2.50;99.90;;;3.17;92.75;95756.66;5224276;28;20228;-73
2021/01/24 03:14:53;;;;;;;2.80;2.70;;;2.50;99.90;;;3.10;92.64;95768.91;5225064;28;20296;-73
2021/01/24 03:17:32;;;;;;;2.60;2.50;;;2.40;99.90;;;3.10;92.47;95779.00;5225032;28;20723;-73
2021/01/24 03:20:07;;;;;;;2.60;2.50;;;2.40;99.90;;;3.20;92.96;95793.81;5224406;28;20207;-75
2021/01/24 03:22:40;;;;;;;2.37;2.27;;;2.40;99.90;;;3.03;92.24;95790.41;5224566;28;20309;-73
2021/01/24 03:25:13;;;;;;;2.53;2.43;;;2.40;99.90;;;3.04;93.21;95796.34;5224729;28;20275;-73
2021/01/24 03:27:46;;;;;;;2.33;2.23;;;2.40;99.90;;;3.12;93.73;95803.53;5224856;28;20201;-73
2021/01/24 03:30:20;;;;;;;2.30;2.20;;;2.40;99.90;;;3.17;92.43;95813.84;5225232;28;20225;-73
2021/01/24 03:32:52;;;;;;;2.43;2.33;;;2.50;99.90;;;3.09;92.06;95812.56;5224390;28;20687;-73
2021/01/24 03:35:25;;;;;;;2.40;2.30;;;2.40;99.90;;;3.07;91.84;95812.50;5224200;28;20450;-73
2021/01/24 03:37:57;;;;;;;2.10;2.00;;;2.40;99.90;;;3.04;92.11;95827.50;5224568;28;20291;-73
2021/01/24 03:40:29;;;;;;;2.53;2.43;;;2.30;99.90;;;2.92;91.51;95827.72;5225068;28;20203;-73
2021/01/24 03:43:01;;;;;;;2.40;2.30;;;2.30;99.90;;;2.89;91.29;95836.75;5224404;28;20304;-73
2021/01/24 03:45:33;;;;;;;2.60;2.50;;;2.20;99.90;;;3.16;91.64;95845.78;5225383;28;20295;-73
2021/01/24 03:48:07;;;;;;;2.53;2.43;;;2.30;99.90;;;3.13;90.80;95844.78;5224630;28;20547;-73
2021/01/24 03:50:39;;;;;;;2.53;2.33;;;2.30;99.90;;;3.04;91.09;95861.97;5223332;28;20611;-73
2021/01/24 03:53:11;;;;;;;2.67;2.57;;;2.30;99.90;;;2.96;90.46;95858.16;5224774;28;20735;-74
2021/01/24 03:55:43;;;;;;;2.50;2.30;;;2.30;99.90;;;2.85;88.05;95870.19;5224269;28;20271;-74
2021/01/24 03:58:15;;;;;;;2.77;2.67;;;2.30;99.90;;;2.74;89.01;95872.13;5225124;28;20208;-74
2021/01/24 04:00:47;;;;;;;2.57;2.47;;;2.20;99.90;;;2.70;91.22;95882.84;5224285;28;20661;-73
2021/01/24 04:03:20;;;;;;;3.70;3.50;;;2.20;99.90;;;2.66;91.52;95884.34;5223890;28;20704;-73
2021/01/24 04:05:52;;;;;;;3.03;2.93;;;2.10;99.90;;;2.64;91.98;95885.91;5224165;28;20199;-73
2021/01/24 04:08:25;;;;;;;3.43;3.23;;;2.10;99.90;;;2.71;91.72;95887.09;5224544;28;20293;-74
2021/01/24 04:10:57;;;;;;;3.57;3.37;;;2.10;99.90;;;2.71;92.66;95898.03;5224051;28;20246;-73
2021/01/24 04:13:29;;;;;;;3.67;3.43;;;2.10;99.90;;;2.69;90.09;95894.59;5224378;28;20381;-73
2021/01/24 04:16:01;;;;;;;3.30;3.10;;;2.00;99.90;;;2.77;90.37;95897.50;5224138;28;20197;-73
2021/01/24 04:18:34;;;;;;;3.60;3.40;;;2.10;99.90;;;2.78;90.79;95899.25;5224916;28;20555;-73
2021/01/24 04:21:06;;;;;;;2.97;2.77;;;2.00;99.90;;;2.77;90.77;95900.03;5224120;28;20441;-73
2021/01/24 04:23:38;;;;;;;3.07;2.97;;;1.90;99.90;;;2.77;89.13;95905.06;5223294;28;20325;-74
2021/01/24 04:26:10;;;;;;;3.70;3.50;;;1.90;99.90;;;2.68;89.50;95913.00;5224259;28;20218;-73
2021/01/24 04:28:42;;;;;;;3.57;3.37;;;1.90;99.90;;;2.64;88.96;95911.09;5224147;28;20194;-74
2021/01/24 04:31:15;;;;;;;3.57;3.30;;;1.90;99.90;;;2.57;89.70;95914.06;5223609;28;20596;-73
2021/01/24 04:33:48;;;;;;;4.07;3.87;;;1.90;99.90;;;2.57;88.08;95910.69;5224407;28;20228;-75
2021/01/24 04:36:20;;;;;;;4.07;3.77;;;1.90;99.90;;;2.61;88.39;95920.16;5223579;28;20201;-73
2021/01/24 04:38:52;;;;;;;4.00;3.70;;;1.80;99.90;;;2.61;89.92;95926.06;5223901;28;20596;-73
2021/01/24 04:41:26;;;;;;;4.13;3.93;;;1.80;99.90;;;2.62;89.08;95927.81;5224195;28;20284;-74
2021/01/24 04:43:59;;;;;;;3.83;3.63;;;1.90;99.90;;;2.63;88.37;95934.59;5224335;28;20227;-74
2021/01/24 04:46:32;;;;;;;3.80;3.50;;;1.80;99.90;;;2.58;89.09;95936.00;5224365;28;20202;-74
2021/01/24 04:49:05;;;;;;;4.30;3.90;;;1.90;99.90;;;2.66;89.47;95939.81;5223646;28;20199;-73
2021/01/24 04:51:39;;;;;;;4.10;3.80;;;1.90;99.90;;;2.57;89.26;95933.38;5222701;28;20230;-73
2021/01/24 04:54:12;;;;;;;3.90;3.70;;;1.80;99.90;;;2.53;89.62;95947.47;5223669;28;20702;-75
2021/01/24 04:56:44;;;;;;;3.93;3.73;;;1.80;99.90;;;2.55;88.96;95935.81;5223295;28;20568;-73
2021/01/24 04:59:16;;;;;;;4.23;3.93;;;1.70;99.90;;;2.52;89.55;95942.31;5223659;28;20643;-74
2021/01/24 05:01:49;;;;;;;4.80;4.50;;;1.70;99.90;;;2.46;89.41;95935.28;5222026;28;20197;-73
2021/01/24 05:04:22;;;;;;;4.30;4.00;;;1.80;99.90;;;2.39;88.70;95939.13;5222341;28;20661;-75
2021/01/24 05:06:54;;;;;;;4.83;4.43;;;1.60;99.90;;;2.21;87.99;95940.59;5224080;28;20203;-73
2021/01/24 05:09:26;;;;;;;3.87;3.67;;;1.60;99.90;;;2.22;88.38;95944.84;5223966;28;20290;-73
2021/01/24 05:11:58;;;;;;;4.80;4.50;;;1.50;99.90;;;2.23;88.96;95939.91;5221814;28;20223;-74
2021/01/24 05:14:30;;;;;;;5.17;4.80;;;1.50;99.90;;;2.14;87.63;95931.78;5224949;28;20564;-74
2021/01/24 05:17:03;;;;;;;5.07;4.67;;;1.40;99.90;;;2.19;88.74;95944.66;5228015;28;20204;-74
2021/01/24 05:19:36;;;;;;;4.60;4.30;;;1.40;99.90;;;2.14;88.63;95944.41;5227433;28;20643;-73
2021/01/24 05:22:10;;;;;;;4.80;4.40;;;1.40;99.90;;;2.13;86.13;95950.22;5227074;28;20290;-74
2021/01/24 05:24:42;;;;;;;4.57;4.10;;;1.40;99.90;;;1.97;85.73;95955.16;5226996;28;20200;-73
2021/01/24 05:27:14;;;;;;;5.03;4.63;;;1.40;99.90;;;2.03;88.03;95952.97;5226667;28;20202;-73
2021/01/24 05:29:47;;;;;;;4.67;4.30;;;1.40;99.90;;;2.04;86.42;95962.28;5227678;28;20210;-73
2021/01/24 05:32:19;;;;;;;4.13;3.83;;;1.40;99.90;;;2.01;87.08;95972.19;5226369;28;20664;-75
2021/01/24 05:34:52;;;;;;;3.90;3.70;;;1.40;99.90;;;1.96;85.93;95981.13;5226603;28;20234;-73
2021/01/24 05:37:24;;;;;;;4.37;4.07;;;1.40;99.90;;;1.93;85.89;95985.97;5227821;28;20670;-75
2021/01/24 05:39:56;;;;;;;4.13;3.83;;;1.30;99.90;;;1.94;84.96;95978.50;5227397;28;20191;-73
2021/01/24 05:42:28;;;;;;;4.23;3.93;;;1.30;99.90;;;1.93;83.90;95980.94;5226721;28;20616;-73
2021/01/24 05:45:01;;;;;;;4.47;4.17;;;1.30;99.90;;;1.83;83.33;95982.03;5227381;28;20640;-76
2021/01/24 05:47:33;;;;;;;4.80;4.40;;;1.20;99.90;;;1.83;83.86;95993.75;5226478;28;20196;-73
2021/01/24 05:50:11;;;;;;;5.23;4.90;;;1.20;99.90;;;1.69;82.38;95991.31;5225177;28;20197;-75
2021/01/24 05:52:48;;;;;;;4.87;4.57;;;1.20;99.90;;;1.67;84.34;95995.38;5226881;28;20249;-76
2021/01/24 05:55:39;;;;;;;5.00;4.60;;;1.10;99.90;;;1.59;84.60;95994.03;5226554;28;20205;-73
2021/01/24 05:58:19;;;;;;;4.87;4.57;;;1.10;99.90;;;1.56;83.63;95999.75;5226155;28;20735;-73
2021/01/24 06:00:53;;;;;;;5.30;4.90;;;1.10;99.90;;;1.52;86.13;96002.88;5226163;28;20676;-77
2021/01/24 06:03:25;;;;;;;5.57;5.07;;;1.00;99.90;;;1.46;85.58;95999.09;5225577;28;20229;-75
2021/01/24 06:05:58;;;;;;;6.10;5.60;;;1.00;99.90;;;1.33;84.79;96010.94;5225779;28;21005;-75
2021/01/24 06:08:30;;;;;;;6.10;5.60;;;1.00;99.90;;;1.31;85.01;96017.50;5226158;28;20211;-76
2021/01/24 06:11:05;;;;;;;5.87;5.27;;;0.90;99.90;;;1.37;87.12;96023.69;5225610;28;20217;-77
2021/01/24 06:13:38;;;;;;;6.13;5.63;;;1.00;99.90;;;1.42;87.50;96029.88;5213806;28;20308;-73
2021/01/24 06:16:17;;;;;;;5.60;5.10;;;0.90;99.90;;;1.44;87.98;96038.41;5205587;28;20205;-75
2021/01/24 06:18:56;;;;;;;5.57;5.10;;;0.90;99.90;;;1.40;86.72;96038.97;5225740;28;20735;-75
2021/01/24 06:21:35;;;;;;;6.53;5.90;;;0.80;99.90;;;1.41;84.79;96034.06;5225280;28;20255;-75
2021/01/24 06:24:15;;;;;;;5.20;4.77;;;0.80;99.90;;;1.42;84.96;96045.84;5225762;28;20230;-73
2021/01/24 06:26:53;;;;;;;5.40;4.90;;;0.80;99.90;;;1.37;83.17;96048.84;5224345;28;20944;-76
2021/01/24 06:29:27;;;;;;;5.87;4.80;;;0.70;99.90;;;1.32;81.76;96057.00;5226218;28;20203;-78
2021/01/24 06:31:59;;;;;;;4.50;4.20;;;0.70;99.90;;;1.39;82.66;96062.41;5224629;28;20220;-75
2021/01/24 06:34:36;;;;;;;5.20;4.70;;;0.70;99.90;;;1.42;81.35;96072.69;5225683;28;20193;-75
2021/01/24 06:37:11;;;;;;;5.10;4.70;;;0.70;99.90;;;1.49;80.14;96072.31;5224331;28;20302;-75
2021/01/24 06:39:48;;;;;;;6.03;5.53;;;0.80;99.90;;;1.61;80.42;96083.13;5225789;28;20247;-75
2021/01/24 06:42:47;;;;;;;4.83;4.43;;;0.90;99.90;;;1.55;80.82;96078.56;5225458;28;20652;-76
2021/01/24 06:45:42;;;;;;;5.97;5.57;;;0.90;99.90;;;1.50;80.59;96096.69;5224660;28;20197;-73
2021/01/24 06:48:16;;;;;;;5.37;4.87;;;0.80;99.90;;;1.56;80.50;96082.81;5224976;28;20210;-75
2021/01/24 06:50:49;;;;;;;6.33;5.83;;;0.80;99.90;;;1.61;81.22;96093.19;5226058;28;20263;-75
2021/01/24 06:53:26;;;;;;;6.43;5.63;;;0.90;99.90;;;1.67;81.04;96098.59;5223602;28;20220;-75
2021/01/24 06:56:01;;;;;;;7.53;5.63;;;0.90;99.90;;;1.64;80.15;96097.56;5225185;28;20287;-73
2021/01/24 06:58:34;;;;;;;5.73;5.17;;;0.90;99.90;;;1.66;81.23;96117.03;5216465;28;20197;-72
2021/01/24 07:01:27;;;;;;;5.60;5.10;;;0.90;99.90;;;1.72;82.14;96124.94;5220789;28;20730;-73
2021/01/24 07:04:40;;;;;;;5.50;5.03;;;0.90;99.90;;;1.69;80.69;96127.28;5221233;28;20221;-74
2021/01/24 07:07:33;;;;;;;5.70;5.20;;;0.90;99.90;;;1.75;81.89;96137.72;5222284;28;20224;-75
2021/01/24 07:10:26;;;;;;;5.93;5.43;;;0.90;99.90;;;1.87;80.15;96141.78;5222538;28;20203;-72
2021/01/24 07:12:58;;;;;;;5.47;5.07;;;1.00;99.90;;;1.92;81.39;96138.78;5209546;28;20218;-73
2021/01/24 07:15:30;;;;;;;5.93;5.43;;;1.00;99.90;;;1.78;79.66;96142.94;5222145;28;20200;-75
2021/01/24 07:18:02;;;;;;;6.30;5.67;;;0.90;99.90;;;1.72;81.66;96147.59;5221748;28;20275;-73
2021/01/24 07:20:34;;;;;;;5.20;4.80;;;0.90;99.90;;;1.69;81.25;96142.38;5222804;28;20205;-73
2021/01/24 07:23:07;;;;;;;5.87;5.40;;;0.90;99.90;;;1.69;81.22;96147.41;5219443;28;20274;-72
2021/01/24 07:25:40;;;;;;;5.73;5.23;;;0.80;99.90;;;1.62;80.08;96150.31;5222121;28;20717;-72
2021/01/24 07:28:13;;;;;;;5.87;5.37;;;0.70;99.90;;;1.61;81.47;96158.66;5222797;28;20205;-73
2021/01/24 07:30:45;;;;;;;6.83;6.07;;;0.70;99.90;;;1.64;81.70;96157.97;5222035;28;20227;-73
2021/01/24 07:33:18;;;;;;;6.37;5.87;;;0.80;99.90;;;1.62;81.84;96154.47;5221150;28;20226;-74
2021/01/24 07:35:50;;;;;;;5.97;5.47;;;0.70;99.90;;;1.60;81.67;96159.41;5221340;28;20204;-72
2021/01/24 07:38:22;;;;;;;6.03;5.53;;;0.70;99.90;;;1.80;81.00;96159.03;5222609;28;20666;-72
2021/01/24 07:41:00;;;;;;;6.10;5.60;;;0.70;99.90;;;1.88;79.38;96159.50;5209505;28;20195;-74
2021/01/24 07:43:34;;;;;;;6.03;5.53;;;0.80;99.90;;;1.73;80.04;96154.38;5221243;28;20219;-75
2021/01/24 07:46:06;;;;;;;6.30;5.83;;;0.80;99.90;;;1.92;80.61;96150.50;5222497;28;20193;-74
2021/01/24 07:48:38;;;;;;;5.83;5.40;;;0.80;99.90;;;1.79;80.33;96158.94;5220781;28;20207;-74
2021/01/24 07:51:10;;;;;;;5.93;5.43;;;1.00;99.90;;;1.77;79.23;96158.84;5222247;28;20237;-74
2021/01/24 07:53:43;;;;;;;5.80;5.37;;;0.90;99.90;;;1.87;80.10;96155.25;5221490;28;20229;-74
2021/01/24 07:56:16;;;;;;;5.30;4.83;;;0.90;99.90;;;1.78;79.51;96165.63;5222333;28;20202;-74
2021/01/24 07:58:49;;;;;;;6.27;5.87;;;1.00;99.90;;;1.84;79.76;96164.25;5221589;28;20676;-74
2021/01/24 08:01:21;;;;;;;5.37;4.97;;;1.00;99.90;;;1.94;77.25;96164.03;5221588;28;20642;-73
2021/01/24 08:03:54;;;;;;;5.77;5.30;;;1.10;99.90;;;1.92;77.87;96160.59;5218837;28;20231;-73
2021/01/24 08:06:26;;;;;;;5.00;4.70;;;1.20;99.90;;;1.90;78.13;96167.16;5202796;28;20587;-73
2021/01/24 08:08:59;;;;;;;5.77;5.30;;;1.30;99.90;;;1.97;77.22;96169.28;5212913;28;20562;-72
2021/01/24 08:11:32;;;;;;;5.93;5.43;;;1.40;99.90;;;2.08;80.06;96165.78;5223008;28;20592;-72
2021/01/24 08:14:05;;;;;;;6.17;5.40;;;1.40;99.90;;;2.20;79.05;96173.22;5223892;28;20221;-73
2021/01/24 08:16:40;;;;;;;5.77;5.37;;;1.40;99.90;;;2.27;79.98;96160.22;5212577;28;20204;-73
2021/01/24 08:19:18;;;;;;;6.13;5.63;;;1.60;99.90;;;2.47;80.67;96179.06;5212047;28;20205;-72
2021/01/24 08:21:51;;;;;;;6.33;5.83;;;1.80;99.90;;;2.59;82.40;96182.31;5220843;28;20545;-71
2021/01/24 08:24:24;;;;;;;5.50;5.00;;;1.80;99.90;;;2.61;79.22;96175.72;5220500;28;20214;-71
2021/01/24 08:26:57;;;;;;;5.40;4.77;;;1.80;99.90;;;2.54;77.87;96186.22;5213066;28;20690;-71
2021/01/24 08:29:34;;;;;;;5.67;5.07;;;1.80;99.90;;;2.73;80.73;96189.84;5204876;28;20282;-72
2021/01/24 08:32:08;;;;;;;5.97;5.47;;;1.90;99.90;;;2.70;80.10;96182.97;5201304;28;20318;-71
2021/01/24 08:34:40;;;;;;;5.40;4.90;;;1.70;99.90;;;2.73;79.60;96193.25;5221480;28;20281;-71
2021/01/24 08:37:12;;;;;;;5.57;5.17;;;1.70;99.90;;;2.75;82.31;96186.66;5221075;28;20200;-72
2021/01/24 08:39:44;;;;;;;6.00;5.40;;;1.70;99.90;;;2.64;79.55;96188.53;5220777;28;21369;-71
2021/01/24 08:42:17;;;;;;;5.03;4.63;;;1.70;99.90;;;2.63;80.06;96195.97;5220315;28;20553;-71
2021/01/24 08:45:00;;;;;;;5.50;5.00;;;1.80;99.90;;;2.56;80.56;96209.00;5202997;28;20191;-71
2021/01/24 08:47:32;;;;;;;5.20;4.80;;;1.70;99.90;;;2.61;81.44;96208.50;5201358;28;20247;-71
2021/01/24 08:50:07;;;;;;;5.60;5.10;;;1.70;99.90;;;2.60;80.60;96205.88;5222952;28;20617;-71
2021/01/24 08:52:39;;;;;;;5.10;4.70;;;1.70;99.90;;;2.53;79.73;96209.69;5225413;28;20230;-71
2021/01/24 08:55:11;;;;;;;5.20;4.70;;;1.60;99.90;;;2.48;77.50;96213.59;5226330;28;20199;-71
2021/01/24 08:57:44;;;;;;;4.93;4.53;;;1.60;99.90;;;2.36;78.34;96215.38;5226707;28;20765;-70
2021/01/24 09:00:18;;;;;;;5.10;4.70;;;1.60;99.90;;;2.60;80.90;96226.91;5226305;28;20199;-71
2021/01/24 09:02:50;;;;;;;4.70;4.40;;;1.60;99.90;;;2.67;78.37;96224.00;5220066;28;20228;-72
2021/01/24 09:05:40;;;;;;;4.93;4.63;;;1.70;99.90;;;2.70;79.05;96224.19;5219238;28;20668;-72
2021/01/24 09:08:28;;;;;;;5.90;5.27;;;2.00;99.90;;;2.97;80.53;96219.03;5225535;28;20194;-70
2021/01/24 09:11:00;;;;;;;5.23;4.73;;;2.30;99.90;;;3.12;81.24;96222.50;5204842;28;20220;-70
2021/01/24 09:13:33;;;;;;;5.00;4.53;;;2.50;99.90;;;3.13;77.95;96218.31;5216478;28;20254;-72
2021/01/24 09:16:05;;;;;;;5.13;4.83;;;2.40;99.90;;;3.15;78.77;96220.13;5225387;28;20489;-72
2021/01/24 09:18:37;;;;;;;4.87;4.47;;;2.20;99.90;;;3.00;75.70;96229.31;5223014;28;20196;-72
2021/01/24 09:21:10;;;;;;;5.00;4.60;;;2.10;99.90;;;3.01;80.02;96228.56;5225402;28;20283;-73
2021/01/24 09:23:42;;;;;;;5.57;5.17;;;2.00;99.90;;;2.97;78.00;96233.31;5224326;28;20228;-73
2021/01/24 09:26:14;;;;;;;5.63;5.13;;;2.00;99.90;;;2.94;79.88;96244.09;5225071;28;20221;-74
2021/01/24 09:28:47;;;;;;;5.23;4.73;;;1.90;99.90;;;2.89;77.21;96240.41;5224280;28;20753;-72
2021/01/24 09:31:18;;;;;;;5.57;5.10;;;1.90;99.90;;;2.98;79.40;96235.94;5223789;28;20241;-72
2021/01/24 09:33:50;;;;;;;5.63;5.13;;;1.90;99.90;;;2.98;78.98;96246.03;5223880;28;20225;-72
2021/01/24 09:36:23;;;;;;;5.30;4.83;;;2.00;99.90;;;2.82;77.73;96253.47;5225023;28;20233;-72
2021/01/24 09:38:55;;;;;;;5.93;5.43;;;2.00;99.90;;;2.87;79.02;96249.56;5224720;28;20281;-73
2021/01/24 09:41:27;;;;;;;5.17;4.83;;;2.00;99.90;;;2.73;78.79;96248.72;5224932;28;20668;-73
2021/01/24 09:44:01;;;;;;;5.93;5.43;;;1.90;99.90;;;2.85;80.25;96261.22;5225292;28;20649;-72
2021/01/24 09:46:33;;;;;;;5.80;5.20;;;2.00;99.90;;;2.81;80.22;96256.78;5220804;28;20281;-72
2021/01/24 09:49:05;;;;;;;7.77;7.13;;;2.00;99.90;;;2.81;78.66;96259.28;5214407;28;20195;-72
2021/01/24 09:51:38;;;;;;;6.27;5.77;;;2.00;99.90;;;2.66;79.71;96260.09;5224634;28;20231;-73
2021/01/24 09:54:10;;;;;;;5.87;5.37;;;1.90;99.90;;;2.75;81.53;96257.28;5224654;28;20234;-74
2021/01/24 09:56:42;;;;;;;5.93;5.50;;;1.90;99.90;;;2.73;81.74;96255.44;5225229;28;20774;-72
2021/01/24 09:59:15;;;;;;;5.67;5.07;;;1.90;99.90;;;2.79;80.74;96273.47;5224173;28;20199;-72
2021/01/24 10:01:48;;;;;;;5.87;5.47;;;1.90;99.90;;;2.81;80.92;96276.94;5223941;28;20278;-72
2021/01/24 10:04:20;;;;;;;20.33;13.70;;;1.80;99.90;;;2.60;81.93;96269.78;5223344;28;20227;-72
2021/01/24 10:06:52;;;;;;;14.00;12.60;;;1.70;99.90;;;2.61;83.94;96281.66;5223462;28;20202;-75
2021/01/24 10:09:24;;;;;;;9.07;8.27;;;1.70;99.90;;;2.53;83.66;96281.94;5216688;28;20224;-73
2021/01/24 10:11:56;;;;;;;6.47;5.87;;;1.60;99.90;;;2.44;83.79;96284.78;5222239;28;20212;-72
2021/01/24 10:14:29;;;;;;;6.37;5.87;;;1.60;99.90;;;2.47;83.89;96295.06;5222401;28;20196;-72
2021/01/24 10:17:01;;;;;;;6.13;5.73;;;1.50;99.90;;;2.47;83.71;96279.91;5219608;28;20219;-72
2021/01/24 10:19:33;;;;;;;6.37;5.87;;;1.50;99.90;;;2.46;84.86;96288.25;5215837;28;20196;-74
2021/01/24 10:22:05;;;;;;;6.20;5.60;;;1.50;99.90;;;2.42;84.14;96287.19;5222891;28;20643;-72
2021/01/24 10:24:37;;;;;;;6.00;5.60;;;1.40;99.90;;;2.51;84.94;96294.44;5223401;28;20202;-72
2021/01/24 10:27:09;;;;;;;7.37;6.83;;;1.50;99.90;;;2.66;84.80;96292.91;5219255;28;20196;-72
2021/01/24 10:29:56;;;;;;;8.07;7.37;;;1.60;99.90;;;2.62;84.43;96297.66;5214270;28;20209;-72
2021/01/24 10:32:28;;;;;;;7.60;7.00;;;1.60;99.90;;;2.69;84.35;96293.09;5221709;28;20222;-71
2021/01/24 10:35:07;;;;;;;6.30;5.70;;;1.60;99.90;;;2.65;83.03;96293.66;5223077;28;20273;-73
2021/01/24 10:37:40;;;;;;;6.63;6.03;;;1.60;99.90;;;2.60;83.72;96295.00;5224002;28;20211;-71
2021/01/24 10:40:13;;;;;;;6.23;5.73;;;1.60;99.90;;;2.57;82.89;96289.78;5223443;28;20205;-72
2021/01/24 10:42:45;;;;;;;6.30;5.77;;;1.60;99.90;;;2.50;82.88;96289.34;5222256;28;20297;-72
2021/01/24 10:45:18;;;;;;;6.37;5.77;;;1.50;99.90;;;2.51;83.75;96294.44;5224186;28;20523;-73
2021/01/24 10:47:50;;;;;;;6.07;5.47;;;1.50;99.90;;;2.55;83.51;96287.94;5218221;28;20196;-72
2021/01/24 10:50:22;;;;;;;6.13;5.53;;;1.60;99.90;;;2.53;82.26;96290.38;5216642;28;20209;-71
2021/01/24 10:52:55;;;;;;;10.73;9.73;;;1.60;99.90;;;2.55;83.77;96293.88;5219968;28;20228;-72
2021/01/24 10:55:27;;;;;;;6.37;5.93;;;1.60;99.90;;;2.73;82.35;96295.78;5221901;28;20668;-71
2021/01/24 10:58:00;;;;;;;6.13;5.40;;;1.70;99.90;;;2.80;81.56;96300.41;5222576;28;20201;-71
2021/01/24 11:00:33;;;;;;;6.20;5.70;;;1.80;99.90;;;2.63;82.31;96295.22;5222662;28;20203;-71